首页
METAR-TAF:

METAR-TAF

机场 :

伦敦Biggin Hill, 英格兰

纬度: 51-19N, 经度: 000-02E, 海拔: 183米

当前天气观测

该预报发布于27分钟前的14:20 UTC
风速7节,风向西转西北,在西北转西北之间变化
温度 6°C
湿度 70%
气压 1028 hPa
能见度10公里或以上
少量云层高于2000英尺

METAR: EGKB 181420Z 30007KT 260V330 9999 FEW020 06/01 Q1028

时间: 14:47 (14:47 UTC)

预报

该预报发布于51分钟前的13:56 UTC
预报有效从18日的 15点(UTC)到 18日的 22点(UTC)
风速7节,风向西北
能见度10公里或以上
少量云层高于3000英尺

TAF: EGKB 181356Z 1815/1822 31007KT 9999 FEW030

超过4000个机场的气象观测和天气预报(METAR&TAF报告)。

可查询的气象台以黄色和红色小点在地图上表示。

将鼠标移到小点上方,可查看气象台名称。

然后点击查看天气观测和预报。

如需切换地图:点击带黑十字的绿色按钮放大地图;点击带横线的绿色按钮缩小地图;或者点击绿色箭头查看邻近地区的地图。


METAR-TAF: